sensor_id;sensor_type;location;lat;lon;timestamp;temperature;humidity
25923;DHT22;13725;51.170;4.442;2024-02-04T00:00:48;11.30;99.90
25923;DHT22;13725;51.170;4.442;2024-02-04T00:03:13;11.40;99.90
25923;DHT22;13725;51.170;4.442;2024-02-04T00:05:39;11.30;99.90
25923;DHT22;13725;51.170;4.442;2024-02-04T00:08:05;11.20;99.90
25923;DHT22;13725;51.170;4.442;2024-02-04T00:10:31;11.30;99.90
25923;DHT22;13725;51.170;4.442;2024-02-04T00:12:56;11.30;99.90
25923;DHT22;13725;51.170;4.442;2024-02-04T00:15:22;11.30;99.90
25923;DHT22;13725;51.170;4.442;2024-02-04T00:17:48;11.40;99.90
25923;DHT22;13725;51.170;4.442;2024-02-04T00:20:14;11.40;99.90
25923;DHT22;13725;51.170;4.442;2024-02-04T00:22:39;11.40;99.90
25923;DHT22;13725;51.170;4.442;2024-02-04T00:25:05;11.40;99.90
25923;DHT22;13725;51.170;4.442;2024-02-04T00:27:32;11.40;99.90
25923;DHT22;13725;51.170;4.442;2024-02-04T00:29:58;11.30;99.90
25923;DHT22;13725;51.170;4.442;2024-02-04T00:32:25;11.30;99.90
25923;DHT22;13725;51.170;4.442;2024-02-04T00:34:52;11.40;99.90
25923;DHT22;13725;51.170;4.442;2024-02-04T00:37:17;11.30;99.90
25923;DHT22;13725;51.170;4.442;2024-02-04T00:39:43;11.30;99.90
25923;DHT22;13725;51.170;4.442;2024-02-04T00:42:09;11.30;99.90
25923;DHT22;13725;51.170;4.442;2024-02-04T00:44:34;11.30;99.90
25923;DHT22;13725;51.170;4.442;2024-02-04T00:47:00;11.30;99.90
25923;DHT22;13725;51.170;4.442;2024-02-04T00:49:26;11.40;99.90
25923;DHT22;13725;51.170;4.442;2024-02-04T00:51:53;11.50;99.90
25923;DHT22;13725;51.170;4.442;2024-02-04T00:54:19;11.40;99.90
25923;DHT22;13725;51.170;4.442;2024-02-04T00:56:44;11.40;99.90
25923;DHT22;13725;51.170;4.442;2024-02-04T00:59:10;11.30;99.90
25923;DHT22;13725;51.170;4.442;2024-02-04T01:01:40;11.40;99.90
25923;DHT22;13725;51.170;4.442;2024-02-04T01:04:06;11.30;99.90
25923;DHT22;13725;51.170;4.442;2024-02-04T01:06:31;11.40;99.90
25923;DHT22;13725;51.170;4.442;2024-02-04T01:08:57;11.40;99.90
25923;DHT22;13725;51.170;4.442;2024-02-04T01:11:23;11.40;99.90
25923;DHT22;13725;51.170;4.442;2024-02-04T01:13:49;11.40;99.90
25923;DHT22;13725;51.170;4.442;2024-02-04T01:16:15;11.40;99.90
25923;DHT22;13725;51.170;4.442;2024-02-04T01:18:40;11.50;99.90
25923;DHT22;13725;51.170;4.442;2024-02-04T01:21:06;11.50;99.90
25923;DHT22;13725;51.170;4.442;2024-02-04T01:23:34;11.50;99.90
25923;DHT22;13725;51.170;4.442;2024-02-04T01:26:00;11.50;99.90
25923;DHT22;13725;51.170;4.442;2024-02-04T01:28:26;11.50;99.90
25923;DHT22;13725;51.170;4.442;2024-02-04T01:30:52;11.50;99.90
25923;DHT22;13725;51.170;4.442;2024-02-04T01:33:17;11.40;99.90
25923;DHT22;13725;51.170;4.442;2024-02-04T01:35:43;11.40;99.90
25923;DHT22;13725;51.170;4.442;2024-02-04T01:38:09;11.40;99.90
25923;DHT22;13725;51.170;4.442;2024-02-04T01:40:34;11.50;99.90
25923;DHT22;13725;51.170;4.442;2024-02-04T01:43:01;11.50;99.90
25923;DHT22;13725;51.170;4.442;2024-02-04T01:45:27;11.50;99.90
25923;DHT22;13725;51.170;4.442;2024-02-04T01:47:53;11.50;99.90
25923;DHT22;13725;51.170;4.442;2024-02-04T01:50:20;11.50;99.90
25923;DHT22;13725;51.170;4.442;2024-02-04T01:52:46;11.50;99.90
25923;DHT22;13725;51.170;4.442;2024-02-04T01:55:13;11.50;99.90
25923;DHT22;13725;51.170;4.442;2024-02-04T01:57:39;11.60;99.90
25923;DHT22;13725;51.170;4.442;2024-02-04T02:00:06;11.50;99.90
25923;DHT22;13725;51.170;4.442;2024-02-04T02:02:38;11.50;99.90
25923;DHT22;13725;51.170;4.442;2024-02-04T02:05:04;11.50;99.90
25923;DHT22;13725;51.170;4.442;2024-02-04T02:07:31;11.50;99.90
25923;DHT22;13725;51.170;4.442;2024-02-04T02:09:57;11.50;99.90
25923;DHT22;13725;51.170;4.442;2024-02-04T02:12:26;11.50;99.90
25923;DHT22;13725;51.170;4.442;2024-02-04T02:15:02;11.40;99.90
25923;DHT22;13725;51.170;4.442;2024-02-04T02:17:37;11.50;99.90
25923;DHT22;13725;51.170;4.442;2024-02-04T02:20:12;11.50;99.90
25923;DHT22;13725;51.170;4.442;2024-02-04T02:22:54;11.50;99.90
25923;DHT22;13725;51.170;4.442;2024-02-04T02:25:26;11.50;99.90
25923;DHT22;13725;51.170;4.442;2024-02-04T02:27:52;11.50;99.90
25923;DHT22;13725;51.170;4.442;2024-02-04T02:30:18;11.50;99.90
25923;DHT22;13725;51.170;4.442;2024-02-04T02:32:45;11.50;99.90
25923;DHT22;13725;51.170;4.442;2024-02-04T02:35:15;11.50;99.90
25923;DHT22;13725;51.170;4.442;2024-02-04T02:37:53;11.50;99.90
25923;DHT22;13725;51.170;4.442;2024-02-04T02:40:34;11.50;99.90
25923;DHT22;13725;51.170;4.442;2024-02-04T02:43:03;11.50;99.90
25923;DHT22;13725;51.170;4.442;2024-02-04T02:45:30;11.50;99.90
25923;DHT22;13725;51.170;4.442;2024-02-04T02:47:58;11.40;99.90
25923;DHT22;13725;51.170;4.442;2024-02-04T02:50:24;11.40;99.90
25923;DHT22;13725;51.170;4.442;2024-02-04T02:52:50;11.40;99.90
25923;DHT22;13725;51.170;4.442;2024-02-04T02:55:16;11.50;99.90
25923;DHT22;13725;51.170;4.442;2024-02-04T02:57:42;11.50;99.90
25923;DHT22;13725;51.170;4.442;2024-02-04T03:00:08;11.50;99.90
25923;DHT22;13725;51.170;4.442;2024-02-04T03:02:34;11.50;99.90
25923;DHT22;13725;51.170;4.442;2024-02-04T03:05:00;11.50;99.90
25923;DHT22;13725;51.170;4.442;2024-02-04T03:07:26;11.50;99.90
25923;DHT22;13725;51.170;4.442;2024-02-04T03:09:53;11.50;99.90
25923;DHT22;13725;51.170;4.442;2024-02-04T03:12:20;11.50;99.90
25923;DHT22;13725;51.170;4.442;2024-02-04T03:14:45;11.50;99.90
25923;DHT22;13725;51.170;4.442;2024-02-04T03:17:11;11.50;99.90
25923;DHT22;13725;51.170;4.442;2024-02-04T03:19:37;11.50;99.90
25923;DHT22;13725;51.170;4.442;2024-02-04T03:22:03;11.60;99.90
25923;DHT22;13725;51.170;4.442;2024-02-04T03:24:30;11.50;99.90
25923;DHT22;13725;51.170;4.442;2024-02-04T03:26:56;11.40;99.90
25923;DHT22;13725;51.170;4.442;2024-02-04T03:29:22;11.40;99.90
25923;DHT22;13725;51.170;4.442;2024-02-04T03:31:48;11.40;99.90
25923;DHT22;13725;51.170;4.442;2024-02-04T03:34:14;11.40;99.90
25923;DHT22;13725;51.170;4.442;2024-02-04T03:36:40;11.50;99.90
25923;DHT22;13725;51.170;4.442;2024-02-04T03:39:06;11.50;99.90
25923;DHT22;13725;51.170;4.442;2024-02-04T03:41:32;11.50;99.90
25923;DHT22;13725;51.170;4.442;2024-02-04T03:43:58;11.50;99.90
25923;DHT22;13725;51.170;4.442;2024-02-04T03:46:23;11.50;99.90
25923;DHT22;13725;51.170;4.442;2024-02-04T03:48:49;11.50;99.90
25923;DHT22;13725;51.170;4.442;2024-02-04T03:51:16;11.50;99.90
25923;DHT22;13725;51.170;4.442;2024-02-04T03:53:43;11.50;99.90
25923;DHT22;13725;51.170;4.442;2024-02-04T03:56:09;11.50;99.90
25923;DHT22;13725;51.170;4.442;2024-02-04T03:58:35;11.60;99.90
25923;DHT22;13725;51.170;4.442;2024-02-04T04:01:01;11.60;99.90
25923;DHT22;13725;51.170;4.442;2024-02-04T04:03:27;11.50;99.90
25923;DHT22;13725;51.170;4.442;2024-02-04T04:05:53;11.50;99.90
25923;DHT22;13725;51.170;4.442;2024-02-04T04:08:19;11.50;99.90
25923;DHT22;13725;51.170;4.442;2024-02-04T04:10:45;11.40;99.90
25923;DHT22;13725;51.170;4.442;2024-02-04T04:13:12;11.40;99.90
25923;DHT22;13725;51.170;4.442;2024-02-04T04:15:38;11.50;99.90
25923;DHT22;13725;51.170;4.442;2024-02-04T04:18:04;11.50;99.90
25923;DHT22;13725;51.170;4.442;2024-02-04T04:20:30;11.50;99.90
25923;DHT22;13725;51.170;4.442;2024-02-04T04:22:56;11.50;99.90
25923;DHT22;13725;51.170;4.442;2024-02-04T04:25:21;11.50;99.90
25923;DHT22;13725;51.170;4.442;2024-02-04T04:27:47;11.50;99.90
25923;DHT22;13725;51.170;4.442;2024-02-04T04:30:13;11.50;99.90
25923;DHT22;13725;51.170;4.442;2024-02-04T04:32:39;11.50;99.90
25923;DHT22;13725;51.170;4.442;2024-02-04T04:35:04;11.50;99.90
25923;DHT22;13725;51.170;4.442;2024-02-04T04:37:30;11.50;99.90
25923;DHT22;13725;51.170;4.442;2024-02-04T04:39:56;11.50;99.90
25923;DHT22;13725;51.170;4.442;2024-02-04T04:42:22;11.50;99.90
25923;DHT22;13725;51.170;4.442;2024-02-04T04:44:47;11.50;99.90
25923;DHT22;13725;51.170;4.442;2024-02-04T04:47:15;11.40;99.90
25923;DHT22;13725;51.170;4.442;2024-02-04T04:49:41;11.40;99.90
25923;DHT22;13725;51.170;4.442;2024-02-04T04:52:07;11.40;99.90
25923;DHT22;13725;51.170;4.442;2024-02-04T04:54:32;11.40;99.90
25923;DHT22;13725;51.170;4.442;2024-02-04T04:56:58;11.30;99.90
25923;DHT22;13725;51.170;4.442;2024-02-04T04:59:24;11.40;99.90
25923;DHT22;13725;51.170;4.442;2024-02-04T05:01:50;11.40;99.90
25923;DHT22;13725;51.170;4.442;2024-02-04T05:04:16;11.40;99.90
25923;DHT22;13725;51.170;4.442;2024-02-04T05:06:44;11.40;99.90
25923;DHT22;13725;51.170;4.442;2024-02-04T05:09:10;11.40;99.90
25923;DHT22;13725;51.170;4.442;2024-02-04T05:11:35;11.40;99.90
25923;DHT22;13725;51.170;4.442;2024-02-04T05:14:01;11.40;99.90
25923;DHT22;13725;51.170;4.442;2024-02-04T05:16:27;11.40;99.90
25923;DHT22;13725;51.170;4.442;2024-02-04T05:18:53;11.50;99.90
25923;DHT22;13725;51.170;4.442;2024-02-04T05:21:18;11.30;99.90
25923;DHT22;13725;51.170;4.442;2024-02-04T05:23:44;11.30;99.90
25923;DHT22;13725;51.170;4.442;2024-02-04T05:26:10;11.20;99.90
25923;DHT22;13725;51.170;4.442;2024-02-04T05:28:36;11.30;99.90
25923;DHT22;13725;51.170;4.442;2024-02-04T05:31:02;11.30;99.90
25923;DHT22;13725;51.170;4.442;2024-02-04T05:33:28;11.30;99.90
25923;DHT22;13725;51.170;4.442;2024-02-04T05:35:54;11.30;99.90
25923;DHT22;13725;51.170;4.442;2024-02-04T05:38:21;11.30;99.90
25923;DHT22;13725;51.170;4.442;2024-02-04T05:40:47;11.30;99.90
25923;DHT22;13725;51.170;4.442;2024-02-04T05:43:12;11.40;99.90
25923;DHT22;13725;51.170;4.442;2024-02-04T05:45:38;11.30;99.90
25923;DHT22;13725;51.170;4.442;2024-02-04T05:48:07;11.30;99.90
25923;DHT22;13725;51.170;4.442;2024-02-04T05:50:33;11.30;99.90
25923;DHT22;13725;51.170;4.442;2024-02-04T05:52:59;11.30;99.90
25923;DHT22;13725;51.170;4.442;2024-02-04T05:55:24;11.40;99.90
25923;DHT22;13725;51.170;4.442;2024-02-04T05:57:50;11.40;99.90
25923;DHT22;13725;51.170;4.442;2024-02-04T06:00:16;11.20;99.90
25923;DHT22;13725;51.170;4.442;2024-02-04T06:02:42;11.20;99.90
25923;DHT22;13725;51.170;4.442;2024-02-04T06:05:13;11.20;99.90
25923;DHT22;13725;51.170;4.442;2024-02-04T06:07:39;11.20;99.90
25923;DHT22;13725;51.170;4.442;2024-02-04T06:10:11;11.20;99.90
25923;DHT22;13725;51.170;4.442;2024-02-04T06:12:36;11.20;99.90
25923;DHT22;13725;51.170;4.442;2024-02-04T06:15:04;11.20;99.90
25923;DHT22;13725;51.170;4.442;2024-02-04T06:17:30;11.30;99.90
25923;DHT22;13725;51.170;4.442;2024-02-04T06:19:55;11.30;99.90
25923;DHT22;13725;51.170;4.442;2024-02-04T06:22:22;11.30;99.90
25923;DHT22;13725;51.170;4.442;2024-02-04T06:24:48;11.30;99.90
25923;DHT22;13725;51.170;4.442;2024-02-04T06:27:15;11.30;99.90
25923;DHT22;13725;51.170;4.442;2024-02-04T06:29:41;11.30;99.90
25923;DHT22;13725;51.170;4.442;2024-02-04T06:32:07;11.30;99.90
25923;DHT22;13725;51.170;4.442;2024-02-04T06:34:32;11.40;99.90
25923;DHT22;13725;51.170;4.442;2024-02-04T06:36:58;11.40;99.90
25923;DHT22;13725;51.170;4.442;2024-02-04T06:39:24;11.30;99.90
25923;DHT22;13725;51.170;4.442;2024-02-04T06:41:49;11.30;99.90
25923;DHT22;13725;51.170;4.442;2024-02-04T06:44:15;11.30;99.90
25923;DHT22;13725;51.170;4.442;2024-02-04T06:46:41;11.30;99.90
25923;DHT22;13725;51.170;4.442;2024-02-04T06:49:07;11.20;99.90
25923;DHT22;13725;51.170;4.442;2024-02-04T06:51:32;11.30;99.90
25923;DHT22;13725;51.170;4.442;2024-02-04T06:53:58;11.30;99.90
25923;DHT22;13725;51.170;4.442;2024-02-04T06:56:24;11.20;99.90
25923;DHT22;13725;51.170;4.442;2024-02-04T06:58:50;11.30;99.90
25923;DHT22;13725;51.170;4.442;2024-02-04T07:01:16;11.50;99.90
25923;DHT22;13725;51.170;4.442;2024-02-04T07:03:41;11.40;99.90
25923;DHT22;13725;51.170;4.442;2024-02-04T07:06:07;11.30;99.90
25923;DHT22;13725;51.170;4.442;2024-02-04T07:08:33;11.30;99.90
25923;DHT22;13725;51.170;4.442;2024-02-04T07:10:59;11.30;99.90
25923;DHT22;13725;51.170;4.442;2024-02-04T07:13:24;11.20;99.90
25923;DHT22;13725;51.170;4.442;2024-02-04T07:15:50;11.20;99.90
25923;DHT22;13725;51.170;4.442;2024-02-04T07:18:16;11.20;99.90
25923;DHT22;13725;51.170;4.442;2024-02-04T07:20:43;11.20;99.90
25923;DHT22;13725;51.170;4.442;2024-02-04T07:23:09;11.20;99.90
25923;DHT22;13725;51.170;4.442;2024-02-04T07:25:35;11.20;99.90
25923;DHT22;13725;51.170;4.442;2024-02-04T07:28:02;11.30;99.90
25923;DHT22;13725;51.170;4.442;2024-02-04T07:30:27;11.40;99.90
25923;DHT22;13725;51.170;4.442;2024-02-04T07:32:53;11.30;99.90
25923;DHT22;13725;51.170;4.442;2024-02-04T07:35:19;11.30;99.90
25923;DHT22;13725;51.170;4.442;2024-02-04T07:37:45;11.30;99.90
25923;DHT22;13725;51.170;4.442;2024-02-04T07:40:11;11.30;99.90
25923;DHT22;13725;51.170;4.442;2024-02-04T07:42:36;11.30;99.90
25923;DHT22;13725;51.170;4.442;2024-02-04T07:45:03;11.20;99.90
25923;DHT22;13725;51.170;4.442;2024-02-04T07:47:34;11.30;99.90
25923;DHT22;13725;51.170;4.442;2024-02-04T07:50:00;11.30;99.90
25923;DHT22;13725;51.170;4.442;2024-02-04T07:52:26;11.40;99.90
25923;DHT22;13725;51.170;4.442;2024-02-04T07:54:51;11.40;99.90
25923;DHT22;13725;51.170;4.442;2024-02-04T07:57:17;11.40;99.90
25923;DHT22;13725;51.170;4.442;2024-02-04T07:59:43;11.40;99.90
25923;DHT22;13725;51.170;4.442;2024-02-04T08:02:09;11.40;99.90
25923;DHT22;13725;51.170;4.442;2024-02-04T08:04:34;11.40;99.90
25923;DHT22;13725;51.170;4.442;2024-02-04T08:07:00;11.40;99.90
25923;DHT22;13725;51.170;4.442;2024-02-04T08:09:26;11.30;99.90
25923;DHT22;13725;51.170;4.442;2024-02-04T08:11:51;11.40;99.90
25923;DHT22;13725;51.170;4.442;2024-02-04T08:14:17;11.50;99.90
25923;DHT22;13725;51.170;4.442;2024-02-04T08:16:44;11.50;99.90
25923;DHT22;13725;51.170;4.442;2024-02-04T08:19:12;11.50;99.90
25923;DHT22;13725;51.170;4.442;2024-02-04T08:21:39;11.60;99.90
25923;DHT22;13725;51.170;4.442;2024-02-04T08:24:05;11.70;99.90
25923;DHT22;13725;51.170;4.442;2024-02-04T08:26:31;11.50;99.90
25923;DHT22;13725;51.170;4.442;2024-02-04T08:28:57;11.60;99.90
25923;DHT22;13725;51.170;4.442;2024-02-04T08:31:22;11.60;99.90
25923;DHT22;13725;51.170;4.442;2024-02-04T08:33:48;11.50;99.90
25923;DHT22;13725;51.170;4.442;2024-02-04T08:36:14;11.50;99.90
25923;DHT22;13725;51.170;4.442;2024-02-04T08:38:39;11.50;99.90
25923;DHT22;13725;51.170;4.442;2024-02-04T08:41:06;11.60;99.90
25923;DHT22;13725;51.170;4.442;2024-02-04T08:43:32;11.50;99.90
25923;DHT22;13725;51.170;4.442;2024-02-04T08:45:57;11.60;99.90
25923;DHT22;13725;51.170;4.442;2024-02-04T08:48:23;11.60;99.90
25923;DHT22;13725;51.170;4.442;2024-02-04T08:50:49;11.50;99.90
25923;DHT22;13725;51.170;4.442;2024-02-04T08:53:15;11.60;99.90
25923;DHT22;13725;51.170;4.442;2024-02-04T08:55:40;11.70;99.90
25923;DHT22;13725;51.170;4.442;2024-02-04T08:58:06;11.80;99.90
25923;DHT22;13725;51.170;4.442;2024-02-04T09:00:32;11.80;99.90
25923;DHT22;13725;51.170;4.442;2024-02-04T09:02:57;11.70;99.90
25923;DHT22;13725;51.170;4.442;2024-02-04T09:05:23;11.90;99.90
25923;DHT22;13725;51.170;4.442;2024-02-04T09:07:49;11.90;99.90
25923;DHT22;13725;51.170;4.442;2024-02-04T09:10:15;11.90;99.90
25923;DHT22;13725;51.170;4.442;2024-02-04T09:12:40;11.90;99.90
25923;DHT22;13725;51.170;4.442;2024-02-04T09:15:06;11.90;99.90
25923;DHT22;13725;51.170;4.442;2024-02-04T09:17:33;12.00;99.90
25923;DHT22;13725;51.170;4.442;2024-02-04T09:19:59;12.00;99.90
25923;DHT22;13725;51.170;4.442;2024-02-04T09:22:25;12.00;99.90
25923;DHT22;13725;51.170;4.442;2024-02-04T09:24:51;12.00;99.90
25923;DHT22;13725;51.170;4.442;2024-02-04T09:27:17;12.00;99.90
25923;DHT22;13725;51.170;4.442;2024-02-04T09:29:44;12.00;99.90
25923;DHT22;13725;51.170;4.442;2024-02-04T09:32:09;11.90;99.90
25923;DHT22;13725;51.170;4.442;2024-02-04T09:34:35;12.00;99.90
25923;DHT22;13725;51.170;4.442;2024-02-04T09:37:01;12.00;99.90
25923;DHT22;13725;51.170;4.442;2024-02-04T09:39:28;12.20;99.90
25923;DHT22;13725;51.170;4.442;2024-02-04T09:41:55;12.30;99.90
25923;DHT22;13725;51.170;4.442;2024-02-04T09:44:23;12.20;99.90
25923;DHT22;13725;51.170;4.442;2024-02-04T09:46:49;12.30;99.90
25923;DHT22;13725;51.170;4.442;2024-02-04T09:49:16;12.20;99.90
25923;DHT22;13725;51.170;4.442;2024-02-04T09:51:42;12.30;99.90
25923;DHT22;13725;51.170;4.442;2024-02-04T09:54:10;12.30;99.90
25923;DHT22;13725;51.170;4.442;2024-02-04T09:56:38;12.30;99.90
25923;DHT22;13725;51.170;4.442;2024-02-04T09:59:04;12.30;99.90
25923;DHT22;13725;51.170;4.442;2024-02-04T10:01:31;12.20;99.90
25923;DHT22;13725;51.170;4.442;2024-02-04T10:03:57;12.10;99.90
25923;DHT22;13725;51.170;4.442;2024-02-04T10:06:24;12.10;99.90
25923;DHT22;13725;51.170;4.442;2024-02-04T10:08:50;12.20;99.90
25923;DHT22;13725;51.170;4.442;2024-02-04T10:11:16;12.30;99.90
25923;DHT22;13725;51.170;4.442;2024-02-04T10:16:09;12.60;99.90
25923;DHT22;13725;51.170;4.442;2024-02-04T10:18:35;12.60;99.90
25923;DHT22;13725;51.170;4.442;2024-02-04T10:21:01;12.70;99.90
25923;DHT22;13725;51.170;4.442;2024-02-04T10:23:27;12.70;99.90
25923;DHT22;13725;51.170;4.442;2024-02-04T10:25:59;12.80;99.90
25923;DHT22;13725;51.170;4.442;2024-02-04T10:28:25;12.90;99.90
25923;DHT22;13725;51.170;4.442;2024-02-04T10:30:52;13.10;99.90
25923;DHT22;13725;51.170;4.442;2024-02-04T10:33:17;13.20;99.90
25923;DHT22;13725;51.170;4.442;2024-02-04T10:35:43;13.30;99.90
25923;DHT22;13725;51.170;4.442;2024-02-04T10:38:09;13.40;99.90
25923;DHT22;13725;51.170;4.442;2024-02-04T10:40:36;13.50;99.90
25923;DHT22;13725;51.170;4.442;2024-02-04T10:43:04;13.50;99.90
25923;DHT22;13725;51.170;4.442;2024-02-04T10:45:32;13.50;99.90
25923;DHT22;13725;51.170;4.442;2024-02-04T10:48:01;13.50;99.90
25923;DHT22;13725;51.170;4.442;2024-02-04T10:50:27;13.60;99.90
25923;DHT22;13725;51.170;4.442;2024-02-04T10:52:58;13.70;99.90
25923;DHT22;13725;51.170;4.442;2024-02-04T10:55:30;13.70;99.90
25923;DHT22;13725;51.170;4.442;2024-02-04T10:57:56;13.60;99.90
25923;DHT22;13725;51.170;4.442;2024-02-04T11:00:23;13.60;99.90
25923;DHT22;13725;51.170;4.442;2024-02-04T11:02:49;13.60;99.90
25923;DHT22;13725;51.170;4.442;2024-02-04T11:05:17;13.60;99.90
25923;DHT22;13725;51.170;4.442;2024-02-04T11:07:43;13.70;99.90
25923;DHT22;13725;51.170;4.442;2024-02-04T11:10:10;13.70;99.90
25923;DHT22;13725;51.170;4.442;2024-02-04T11:12:38;13.70;99.90
25923;DHT22;13725;51.170;4.442;2024-02-04T11:15:07;13.70;99.90
25923;DHT22;13725;51.170;4.442;2024-02-04T11:20:59;14.00;99.90
25923;DHT22;13725;51.170;4.442;2024-02-04T11:26:22;14.10;99.90
25923;DHT22;13725;51.170;4.442;2024-02-04T11:28:49;14.10;99.90
25923;DHT22;13725;51.170;4.442;2024-02-04T11:31:17;14.30;99.90
25923;DHT22;13725;51.170;4.442;2024-02-04T11:33:43;14.50;99.90
25923;DHT22;13725;51.170;4.442;2024-02-04T11:36:16;14.60;99.90
25923;DHT22;13725;51.170;4.442;2024-02-04T11:38:47;14.60;99.90
25923;DHT22;13725;51.170;4.442;2024-02-04T11:41:24;14.60;99.90
25923;DHT22;13725;51.170;4.442;2024-02-04T11:43:55;14.60;99.90
25923;DHT22;13725;51.170;4.442;2024-02-04T11:46:27;14.60;99.90
25923;DHT22;13725;51.170;4.442;2024-02-04T11:48:53;14.40;99.90
25923;DHT22;13725;51.170;4.442;2024-02-04T11:51:22;14.40;99.90
25923;DHT22;13725;51.170;4.442;2024-02-04T11:53:54;14.40;99.90
25923;DHT22;13725;51.170;4.442;2024-02-04T11:56:20;14.50;99.90
25923;DHT22;13725;51.170;4.442;2024-02-04T11:58:46;14.50;99.90
25923;DHT22;13725;51.170;4.442;2024-02-04T12:01:12;14.70;99.90
25923;DHT22;13725;51.170;4.442;2024-02-04T12:03:38;14.90;99.90
25923;DHT22;13725;51.170;4.442;2024-02-04T12:06:04;15.00;99.90
25923;DHT22;13725;51.170;4.442;2024-02-04T12:08:32;14.90;99.90
25923;DHT22;13725;51.170;4.442;2024-02-04T12:10:59;14.90;99.90
25923;DHT22;13725;51.170;4.442;2024-02-04T12:13:28;14.80;99.90
25923;DHT22;13725;51.170;4.442;2024-02-04T12:15:54;14.70;99.90
25923;DHT22;13725;51.170;4.442;2024-02-04T12:18:19;14.50;99.90
25923;DHT22;13725;51.170;4.442;2024-02-04T12:20:47;14.50;99.90
25923;DHT22;13725;51.170;4.442;2024-02-04T12:23:17;14.70;99.90
25923;DHT22;13725;51.170;4.442;2024-02-04T12:25:44;14.70;99.90
25923;DHT22;13725;51.170;4.442;2024-02-04T12:28:10;14.60;99.90
25923;DHT22;13725;51.170;4.442;2024-02-04T12:30:36;14.50;99.90
25923;DHT22;13725;51.170;4.442;2024-02-04T12:33:03;14.80;99.90
25923;DHT22;13725;51.170;4.442;2024-02-04T12:35:32;14.90;99.90
25923;DHT22;13725;51.170;4.442;2024-02-04T12:38:00;14.90;99.90
25923;DHT22;13725;51.170;4.442;2024-02-04T12:40:30;14.90;99.90
25923;DHT22;13725;51.170;4.442;2024-02-04T12:43:01;14.90;99.90
25923;DHT22;13725;51.170;4.442;2024-02-04T12:45:28;14.80;99.90
25923;DHT22;13725;51.170;4.442;2024-02-04T12:47:58;14.80;99.90
25923;DHT22;13725;51.170;4.442;2024-02-04T12:50:25;14.70;99.90
25923;DHT22;13725;51.170;4.442;2024-02-04T12:53:08;14.60;99.90
25923;DHT22;13725;51.170;4.442;2024-02-04T12:55:37;14.60;99.90
25923;DHT22;13725;51.170;4.442;2024-02-04T12:58:11;14.40;99.90
25923;DHT22;13725;51.170;4.442;2024-02-04T13:00:40;14.30;99.90
25923;DHT22;13725;51.170;4.442;2024-02-04T13:03:07;14.30;99.90
25923;DHT22;13725;51.170;4.442;2024-02-04T13:05:34;14.30;99.90
25923;DHT22;13725;51.170;4.442;2024-02-04T13:08:03;14.20;99.90
25923;DHT22;13725;51.170;4.442;2024-02-04T13:10:31;14.20;99.90
25923;DHT22;13725;51.170;4.442;2024-02-04T13:13:00;14.10;99.90
25923;DHT22;13725;51.170;4.442;2024-02-04T13:15:30;14.00;99.90
25923;DHT22;13725;51.170;4.442;2024-02-04T13:17:56;13.90;99.90
25923;DHT22;13725;51.170;4.442;2024-02-04T13:20:22;14.10;99.90
25923;DHT22;13725;51.170;4.442;2024-02-04T13:22:49;14.10;99.90
25923;DHT22;13725;51.170;4.442;2024-02-04T13:25:15;14.20;99.90
25923;DHT22;13725;51.170;4.442;2024-02-04T13:27:41;14.20;99.90
25923;DHT22;13725;51.170;4.442;2024-02-04T13:30:07;14.10;99.90
25923;DHT22;13725;51.170;4.442;2024-02-04T13:32:40;14.00;99.90
25923;DHT22;13725;51.170;4.442;2024-02-04T13:35:07;13.90;99.90
25923;DHT22;13725;51.170;4.442;2024-02-04T13:37:42;13.80;99.90
25923;DHT22;13725;51.170;4.442;2024-02-04T13:40:14;13.80;99.90
25923;DHT22;13725;51.170;4.442;2024-02-04T13:42:40;13.80;99.90
25923;DHT22;13725;51.170;4.442;2024-02-04T13:45:06;13.80;99.90
25923;DHT22;13725;51.170;4.442;2024-02-04T13:47:32;13.80;99.90
25923;DHT22;13725;51.170;4.442;2024-02-04T13:49:57;13.70;99.90
25923;DHT22;13725;51.170;4.442;2024-02-04T13:52:23;13.70;99.90
25923;DHT22;13725;51.170;4.442;2024-02-04T13:54:49;13.80;99.90
25923;DHT22;13725;51.170;4.442;2024-02-04T13:57:15;13.90;99.90
25923;DHT22;13725;51.170;4.442;2024-02-04T13:59:40;14.00;99.90
25923;DHT22;13725;51.170;4.442;2024-02-04T14:02:07;14.00;99.90
25923;DHT22;13725;51.170;4.442;2024-02-04T14:04:35;13.90;99.90
25923;DHT22;13725;51.170;4.442;2024-02-04T14:07:01;13.90;99.90
25923;DHT22;13725;51.170;4.442;2024-02-04T14:09:27;13.90;99.90
25923;DHT22;13725;51.170;4.442;2024-02-04T14:11:53;14.10;99.90
25923;DHT22;13725;51.170;4.442;2024-02-04T14:14:25;14.30;99.90
25923;DHT22;13725;51.170;4.442;2024-02-04T14:16:50;14.30;99.90
25923;DHT22;13725;51.170;4.442;2024-02-04T14:19:17;14.40;99.90
25923;DHT22;13725;51.170;4.442;2024-02-04T14:21:43;14.50;99.90
25923;DHT22;13725;51.170;4.442;2024-02-04T14:24:09;14.60;99.90
25923;DHT22;13725;51.170;4.442;2024-02-04T14:26:35;14.60;99.90
25923;DHT22;13725;51.170;4.442;2024-02-04T14:29:00;14.60;99.90
25923;DHT22;13725;51.170;4.442;2024-02-04T14:31:26;14.50;99.90
25923;DHT22;13725;51.170;4.442;2024-02-04T14:33:52;14.40;99.90
25923;DHT22;13725;51.170;4.442;2024-02-04T14:36:18;14.30;99.90
25923;DHT22;13725;51.170;4.442;2024-02-04T14:38:45;14.20;99.90
25923;DHT22;13725;51.170;4.442;2024-02-04T14:41:11;14.20;99.90
25923;DHT22;13725;51.170;4.442;2024-02-04T14:43:37;14.20;99.90
25923;DHT22;13725;51.170;4.442;2024-02-04T14:46:04;14.00;99.90
25923;DHT22;13725;51.170;4.442;2024-02-04T14:48:30;14.10;99.90
25923;DHT22;13725;51.170;4.442;2024-02-04T14:51:01;14.00;99.90
25923;DHT22;13725;51.170;4.442;2024-02-04T14:53:26;14.00;99.90
25923;DHT22;13725;51.170;4.442;2024-02-04T14:55:52;14.00;99.90
25923;DHT22;13725;51.170;4.442;2024-02-04T14:58:18;13.90;99.90
25923;DHT22;13725;51.170;4.442;2024-02-04T15:00:44;13.80;99.90
25923;DHT22;13725;51.170;4.442;2024-02-04T15:03:10;13.80;99.90
25923;DHT22;13725;51.170;4.442;2024-02-04T15:05:36;13.80;99.90
25923;DHT22;13725;51.170;4.442;2024-02-04T15:08:02;13.60;99.90
25923;DHT22;13725;51.170;4.442;2024-02-04T15:10:27;13.60;99.90
25923;DHT22;13725;51.170;4.442;2024-02-04T15:12:54;13.70;99.90
25923;DHT22;13725;51.170;4.442;2024-02-04T15:15:20;13.70;99.90
25923;DHT22;13725;51.170;4.442;2024-02-04T15:17:46;13.70;99.90
25923;DHT22;13725;51.170;4.442;2024-02-04T15:20:12;13.80;99.90
25923;DHT22;13725;51.170;4.442;2024-02-04T15:22:40;13.70;99.90
25923;DHT22;13725;51.170;4.442;2024-02-04T15:25:06;13.70;99.90
25923;DHT22;13725;51.170;4.442;2024-02-04T15:27:32;13.60;99.90
25923;DHT22;13725;51.170;4.442;2024-02-04T15:29:59;13.70;99.90
25923;DHT22;13725;51.170;4.442;2024-02-04T15:32:25;13.60;99.90
25923;DHT22;13725;51.170;4.442;2024-02-04T15:34:51;13.50;99.90